sensor_id;sensor_type;location;lat;lon;timestamp;pressure;altitude;pressure_sealevel;temperature;humidity
32033;BME280;31720;52.638;9.216;2022-09-09T00:02:21;100602.50;;;14.55;100.00
32033;BME280;31720;52.638;9.216;2022-09-09T00:05:29;100597.53;;;14.50;100.00
32033;BME280;31720;52.638;9.216;2022-09-09T00:08:41;100595.06;;;14.47;100.00
32033;BME280;31720;52.638;9.216;2022-09-09T00:11:51;100592.75;;;14.42;100.00
32033;BME280;31720;52.638;9.216;2022-09-09T00:14:55;100592.97;;;14.39;100.00
32033;BME280;31720;52.638;9.216;2022-09-09T00:18:07;100578.31;;;14.35;100.00
32033;BME280;31720;52.638;9.216;2022-09-09T00:21:15;100580.31;;;14.32;100.00
32033;BME280;31720;52.638;9.216;2022-09-09T00:24:26;100596.28;;;14.30;100.00
32033;BME280;31720;52.638;9.216;2022-09-09T00:27:34;100588.78;;;14.24;100.00
32033;BME280;31720;52.638;9.216;2022-09-09T00:30:39;100594.06;;;14.24;100.00
32033;BME280;31720;52.638;9.216;2022-09-09T00:33:43;100596.09;;;14.20;100.00
32033;BME280;31720;52.638;9.216;2022-09-09T00:36:45;100588.16;;;14.20;100.00
32033;BME280;31720;52.638;9.216;2022-09-09T00:39:50;100594.53;;;14.18;100.00
32033;BME280;31720;52.638;9.216;2022-09-09T00:43:08;100587.44;;;14.18;100.00
32033;BME280;31720;52.638;9.216;2022-09-09T00:46:32;100585.84;;;14.16;100.00
32033;BME280;31720;52.638;9.216;2022-09-09T00:49:51;100582.47;;;14.14;100.00
32033;BME280;31720;52.638;9.216;2022-09-09T00:53:02;100585.84;;;14.16;100.00
32033;BME280;31720;52.638;9.216;2022-09-09T00:56:12;100588.59;;;14.14;100.00
32033;BME280;31720;52.638;9.216;2022-09-09T00:59:24;100592.81;;;14.17;100.00
32033;BME280;31720;52.638;9.216;2022-09-09T01:02:32;100591.66;;;14.21;100.00
32033;BME280;31720;52.638;9.216;2022-09-09T01:05:44;100589.63;;;14.25;100.00
32033;BME280;31720;52.638;9.216;2022-09-09T01:09:04;100584.25;;;14.26;100.00
32033;BME280;31720;52.638;9.216;2022-09-09T01:12:12;100582.22;;;14.30;100.00
32033;BME280;31720;52.638;9.216;2022-09-09T01:15:19;100582.22;;;14.30;100.00
32033;BME280;31720;52.638;9.216;2022-09-09T01:18:26;100577.78;;;14.30;100.00
32033;BME280;31720;52.638;9.216;2022-09-09T01:21:37;100577.44;;;14.35;100.00
32033;BME280;31720;52.638;9.216;2022-09-09T01:24:43;100577.69;;;14.32;100.00
32033;BME280;31720;52.638;9.216;2022-09-09T01:27:52;100574.91;;;14.33;100.00
32033;BME280;31720;52.638;9.216;2022-09-09T01:30:56;100573.13;;;14.34;100.00
32033;BME280;31720;52.638;9.216;2022-09-09T01:33:58;100572.06;;;14.36;100.00
32033;BME280;31720;52.638;9.216;2022-09-09T01:37:02;100572.78;;;14.38;100.00
32033;BME280;31720;52.638;9.216;2022-09-09T01:40:06;100566.44;;;14.41;100.00
32033;BME280;31720;52.638;9.216;2022-09-09T01:43:10;100559.34;;;14.41;100.00
32033;BME280;31720;52.638;9.216;2022-09-09T01:46:12;100564.75;;;14.40;100.00
32033;BME280;31720;52.638;9.216;2022-09-09T01:49:15;100556.72;;;14.41;100.00
32033;BME280;31720;52.638;9.216;2022-09-09T01:52:17;100555.03;;;14.40;100.00
32033;BME280;31720;52.638;9.216;2022-09-09T01:55:26;100564.75;;;14.40;100.00
32033;BME280;31720;52.638;9.216;2022-09-09T01:58:39;100567.63;;;14.37;100.00
32033;BME280;31720;52.638;9.216;2022-09-09T02:01:56;100568.34;;;14.39;100.00
32033;BME280;31720;52.638;9.216;2022-09-09T02:05:16;100565.94;;;14.36;100.00
32033;BME280;31720;52.638;9.216;2022-09-09T02:08:21;100565.19;;;14.34;100.00
32033;BME280;31720;52.638;9.216;2022-09-09T02:11:26;100559.69;;;14.37;100.00
32033;BME280;31720;52.638;9.216;2022-09-09T02:14:34;100564.84;;;14.38;100.00
32033;BME280;31720;52.638;9.216;2022-09-09T02:17:37;100565.94;;;14.36;100.00
32033;BME280;31720;52.638;9.216;2022-09-09T02:20:41;100559.06;;;14.33;100.00
32033;BME280;31720;52.638;9.216;2022-09-09T02:23:45;100559.50;;;14.27;100.00
32033;BME280;31720;52.638;9.216;2022-09-09T02:26:50;100561.41;;;14.25;100.00
32033;BME280;31720;52.638;9.216;2022-09-09T02:29:56;100561.72;;;14.20;100.00
32033;BME280;31720;52.638;9.216;2022-09-09T02:33:02;100550.44;;;14.18;100.00
32033;BME280;31720;52.638;9.216;2022-09-09T02:36:08;100556.78;;;14.16;100.00
32033;BME280;31720;52.638;9.216;2022-09-09T02:39:12;100556.25;;;14.11;100.00
32033;BME280;31720;52.638;9.216;2022-09-09T02:42:14;100560.06;;;14.07;100.00
32033;BME280;31720;52.638;9.216;2022-09-09T02:45:19;100569.69;;;14.08;100.00
32033;BME280;31720;52.638;9.216;2022-09-09T02:48:27;100573.53;;;14.04;100.00
32033;BME280;31720;52.638;9.216;2022-09-09T02:51:35;100573.59;;;14.02;100.00
32033;BME280;31720;52.638;9.216;2022-09-09T02:54:38;100577.22;;;14.01;100.00
32033;BME280;31720;52.638;9.216;2022-09-09T02:57:41;100585.00;;;14.03;100.00
32033;BME280;31720;52.638;9.216;2022-09-09T03:00:49;100589.47;;;14.02;100.00
32033;BME280;31720;52.638;9.216;2022-09-09T03:03:51;100583.97;;;14.05;100.00
32033;BME280;31720;52.638;9.216;2022-09-09T03:06:52;100587.66;;;14.03;100.00
32033;BME280;31720;52.638;9.216;2022-09-09T03:09:54;100589.59;;;14.01;100.00
32033;BME280;31720;52.638;9.216;2022-09-09T03:12:55;100601.00;;;14.01;100.00
32033;BME280;31720;52.638;9.216;2022-09-09T03:15:58;100594.75;;;14.02;100.00
32033;BME280;31720;52.638;9.216;2022-09-09T03:19:00;100593.78;;;14.03;100.00
32033;BME280;31720;52.638;9.216;2022-09-09T03:22:02;100590.31;;;14.03;100.00
32033;BME280;31720;52.638;9.216;2022-09-09T03:25:05;100602.47;;;14.05;100.00
32033;BME280;31720;52.638;9.216;2022-09-09T03:28:06;100601.38;;;14.08;100.00
32033;BME280;31720;52.638;9.216;2022-09-09T03:31:10;100598.66;;;14.09;100.00
32033;BME280;31720;52.638;9.216;2022-09-09T03:34:11;100601.63;;;14.05;100.00
32033;BME280;31720;52.638;9.216;2022-09-09T03:37:13;100590.22;;;14.04;100.00
32033;BME280;31720;52.638;9.216;2022-09-09T03:40:15;100596.22;;;14.06;100.00
32033;BME280;31720;52.638;9.216;2022-09-09T03:43:16;100587.78;;;14.01;100.00
32033;BME280;31720;52.638;9.216;2022-09-09T03:46:19;100588.63;;;14.02;100.00
32033;BME280;31720;52.638;9.216;2022-09-09T03:49:21;100587.13;;;13.98;100.00
32033;BME280;31720;52.638;9.216;2022-09-09T03:52:22;100595.91;;;13.98;100.00
32033;BME280;31720;52.638;9.216;2022-09-09T03:55:26;100590.75;;;13.96;100.00
32033;BME280;31720;52.638;9.216;2022-09-09T03:58:28;100584.94;;;13.91;100.00
32033;BME280;31720;52.638;9.216;2022-09-09T04:01:31;100585.25;;;13.87;100.00
32033;BME280;31720;52.638;9.216;2022-09-09T04:04:32;100587.91;;;13.87;100.00
32033;BME280;31720;52.638;9.216;2022-09-09T04:07:33;100584.31;;;13.88;100.00
32033;BME280;31720;52.638;9.216;2022-09-09T04:10:35;100582.81;;;13.84;100.00
32033;BME280;31720;52.638;9.216;2022-09-09T04:13:37;100585.47;;;13.84;100.00
32033;BME280;31720;52.638;9.216;2022-09-09T04:16:41;100590.03;;;13.82;100.00
32033;BME280;31720;52.638;9.216;2022-09-09T04:19:44;100586.75;;;13.78;100.00
32033;BME280;31720;52.638;9.216;2022-09-09T04:22:46;100584.31;;;13.75;100.00
32033;BME280;31720;52.638;9.216;2022-09-09T04:25:49;100586.94;;;13.75;100.00
32033;BME280;31720;52.638;9.216;2022-09-09T04:28:51;100592.34;;;13.74;100.00
32033;BME280;31720;52.638;9.216;2022-09-09T04:31:53;100589.81;;;13.72;100.00
32033;BME280;31720;52.638;9.216;2022-09-09T04:34:55;100588.84;;;13.73;100.00
32033;BME280;31720;52.638;9.216;2022-09-09T04:37:56;100594.13;;;13.73;100.00
32033;BME280;31720;52.638;9.216;2022-09-09T04:40:57;100593.91;;;13.76;100.00
32033;BME280;31720;52.638;9.216;2022-09-09T04:43:59;100601.44;;;13.82;100.00
32033;BME280;31720;52.638;9.216;2022-09-09T04:47:02;100594.47;;;13.81;100.00
32033;BME280;31720;52.638;9.216;2022-09-09T04:50:04;100597.00;;;13.83;100.00
32033;BME280;31720;52.638;9.216;2022-09-09T04:53:05;100604.91;;;13.83;100.00
32033;BME280;31720;52.638;9.216;2022-09-09T04:56:09;100602.38;;;13.81;100.00
32033;BME280;31720;52.638;9.216;2022-09-09T04:59:11;100605.88;;;13.82;100.00
32033;BME280;31720;52.638;9.216;2022-09-09T05:02:14;100599.84;;;13.80;100.00
32033;BME280;31720;52.638;9.216;2022-09-09T05:05:15;100610.31;;;13.81;100.00
32033;BME280;31720;52.638;9.216;2022-09-09T05:08:16;100608.59;;;13.80;100.00
32033;BME280;31720;52.638;9.216;2022-09-09T05:11:20;100611.16;;;13.82;100.00
32033;BME280;31720;52.638;9.216;2022-09-09T05:14:23;100609.66;;;13.78;100.00
32033;BME280;31720;52.638;9.216;2022-09-09T05:17:26;100613.28;;;13.77;100.00
32033;BME280;31720;52.638;9.216;2022-09-09T05:20:28;100618.31;;;13.80;100.00
32033;BME280;31720;52.638;9.216;2022-09-09T05:23:29;100621.91;;;13.79;100.00
32033;BME280;31720;52.638;9.216;2022-09-09T05:26:30;100616.53;;;13.80;100.00
32033;BME280;31720;52.638;9.216;2022-09-09T05:29:32;100615.59;;;13.81;100.00
32033;BME280;31720;52.638;9.216;2022-09-09T05:32:35;100616.31;;;13.83;100.00
32033;BME280;31720;52.638;9.216;2022-09-09T05:35:37;100617.91;;;13.86;100.00
32033;BME280;31720;52.638;9.216;2022-09-09T05:38:38;100616.97;;;13.87;100.00
32033;BME280;31720;52.638;9.216;2022-09-09T05:41:40;100619.72;;;13.85;100.00
32033;BME280;31720;52.638;9.216;2022-09-09T05:44:41;100625.72;;;13.87;100.00
32033;BME280;31720;52.638;9.216;2022-09-09T05:47:51;100636.94;;;13.91;100.00
32033;BME280;31720;52.638;9.216;2022-09-09T05:50:53;100629.84;;;13.91;100.00
32033;BME280;31720;52.638;9.216;2022-09-09T05:53:55;100638.31;;;13.96;100.00
32033;BME280;31720;52.638;9.216;2022-09-09T05:56:58;100638.81;;;14.02;100.00
32033;BME280;31720;52.638;9.216;2022-09-09T06:00:00;100642.75;;;14.09;100.00
32033;BME280;31720;52.638;9.216;2022-09-09T06:03:02;100636.28;;;14.13;100.00
32033;BME280;31720;52.638;9.216;2022-09-09T06:06:05;100641.13;;;14.19;100.00
32033;BME280;31720;52.638;9.216;2022-09-09T06:09:08;100635.53;;;14.24;100.00
32033;BME280;31720;52.638;9.216;2022-09-09T06:12:10;100630.88;;;14.27;100.00
32033;BME280;31720;52.638;9.216;2022-09-09T06:15:11;100624.50;;;14.30;100.00
32033;BME280;31720;52.638;9.216;2022-09-09T06:18:14;100637.66;;;14.31;100.00
32033;BME280;31720;52.638;9.216;2022-09-09T06:21:20;100641.00;;;14.33;100.00
32033;BME280;31720;52.638;9.216;2022-09-09T06:24:22;100634.56;;;14.37;100.00
32033;BME280;31720;52.638;9.216;2022-09-09T06:27:23;100631.47;;;14.43;100.00
32033;BME280;31720;52.638;9.216;2022-09-09T06:30:24;100632.63;;;14.52;100.00
32033;BME280;31720;52.638;9.216;2022-09-09T06:33:31;100630.50;;;14.57;100.00
32033;BME280;31720;52.638;9.216;2022-09-09T06:36:36;100631.97;;;14.61;100.00
32033;BME280;31720;52.638;9.216;2022-09-09T06:39:38;100631.66;;;14.66;100.00
32033;BME280;31720;52.638;9.216;2022-09-09T06:42:39;100633.97;;;14.70;100.00
32033;BME280;31720;52.638;9.216;2022-09-09T06:45:40;100626.53;;;14.76;100.00
32033;BME280;31720;52.638;9.216;2022-09-09T06:48:43;100629.81;;;14.79;100.00
32033;BME280;31720;52.638;9.216;2022-09-09T06:51:45;100623.78;;;14.77;100.00
32033;BME280;31720;52.638;9.216;2022-09-09T06:54:46;100626.44;;;14.77;100.00
32033;BME280;31720;52.638;9.216;2022-09-09T06:57:48;100624.75;;;14.76;100.00
32033;BME280;31720;52.638;9.216;2022-09-09T07:00:50;100628.25;;;14.77;100.00
32033;BME280;31720;52.638;9.216;2022-09-09T07:03:55;100629.19;;;14.76;100.00
32033;BME280;31720;52.638;9.216;2022-09-09T07:06:57;100630.88;;;14.77;100.00
32033;BME280;31720;52.638;9.216;2022-09-09T07:09:59;100622.13;;;14.76;100.00
32033;BME280;31720;52.638;9.216;2022-09-09T07:13:00;100615.63;;;14.80;100.00
32033;BME280;31720;52.638;9.216;2022-09-09T07:16:04;100622.38;;;14.84;100.00
32033;BME280;31720;52.638;9.216;2022-09-09T07:19:07;100626.81;;;14.84;100.00
32033;BME280;31720;52.638;9.216;2022-09-09T07:22:08;100625.75;;;14.86;100.00
32033;BME280;31720;52.638;9.216;2022-09-09T07:25:10;100629.97;;;14.89;100.00
32033;BME280;31720;52.638;9.216;2022-09-09T07:28:12;100628.06;;;14.91;100.00
32033;BME280;31720;52.638;9.216;2022-09-09T07:31:15;100624.25;;;14.95;100.00
32033;BME280;31720;52.638;9.216;2022-09-09T07:34:17;100621.47;;;14.96;100.00
32033;BME280;31720;52.638;9.216;2022-09-09T07:37:19;100634.50;;;15.00;100.00
32033;BME280;31720;52.638;9.216;2022-09-09T07:40:20;100631.50;;;15.04;100.00
32033;BME280;31720;52.638;9.216;2022-09-09T07:43:25;100636.56;;;15.07;100.00
32033;BME280;31720;52.638;9.216;2022-09-09T07:46:27;100640.44;;;15.14;100.00
32033;BME280;31720;52.638;9.216;2022-09-09T07:49:29;100647.22;;;15.18;100.00
32033;BME280;31720;52.638;9.216;2022-09-09T07:52:33;100648.06;;;15.19;100.00
32033;BME280;31720;52.638;9.216;2022-09-09T07:55:34;100647.59;;;15.25;100.00
32033;BME280;31720;52.638;9.216;2022-09-09T07:58:36;100646.31;;;15.31;100.00
32033;BME280;31720;52.638;9.216;2022-09-09T08:01:39;100644.53;;;15.42;100.00
32033;BME280;31720;52.638;9.216;2022-09-09T08:04:42;100649.97;;;15.52;100.00
32033;BME280;31720;52.638;9.216;2022-09-09T08:07:43;100645.66;;;15.62;100.00
32033;BME280;31720;52.638;9.216;2022-09-09T08:10:45;100647.31;;;15.76;100.00
32033;BME280;31720;52.638;9.216;2022-09-09T08:13:47;100649.00;;;15.88;100.00
32033;BME280;31720;52.638;9.216;2022-09-09T08:16:49;100653.00;;;16.05;100.00
32033;BME280;31720;52.638;9.216;2022-09-09T08:19:52;100644.69;;;16.21;100.00
32033;BME280;31720;52.638;9.216;2022-09-09T08:22:55;100645.78;;;16.30;100.00
32033;BME280;31720;52.638;9.216;2022-09-09T08:26:03;100652.28;;;16.37;100.00
32033;BME280;31720;52.638;9.216;2022-09-09T08:29:06;100647.81;;;16.48;100.00
32033;BME280;31720;52.638;9.216;2022-09-09T08:32:07;100648.16;;;16.55;100.00
32033;BME280;31720;52.638;9.216;2022-09-09T08:35:10;100652.88;;;16.63;100.00
32033;BME280;31720;52.638;9.216;2022-09-09T08:38:11;100650.78;;;16.66;100.00
32033;BME280;31720;52.638;9.216;2022-09-09T08:41:32;100654.31;;;16.78;100.00
32033;BME280;31720;52.638;9.216;2022-09-09T08:44:45;100656.09;;;16.89;100.00
32033;BME280;31720;52.638;9.216;2022-09-09T08:48:08;100659.81;;;16.97;100.00
32033;BME280;31720;52.638;9.216;2022-09-09T08:51:15;100660.16;;;17.04;100.00
32033;BME280;31720;52.638;9.216;2022-09-09T08:54:17;100664.50;;;17.05;100.00
32033;BME280;31720;52.638;9.216;2022-09-09T08:57:21;100667.03;;;17.07;100.00
32033;BME280;31720;52.638;9.216;2022-09-09T09:00:33;100660.84;;;17.17;100.00
32033;BME280;31720;52.638;9.216;2022-09-09T09:03:43;100661.78;;;17.28;100.00
32033;BME280;31720;52.638;9.216;2022-09-09T09:06:51;100664.88;;;17.33;100.00
32033;BME280;31720;52.638;9.216;2022-09-09T09:10:02;100666.91;;;17.40;100.00
32033;BME280;31720;52.638;9.216;2022-09-09T09:13:07;100668.81;;;17.49;100.00
32033;BME280;31720;52.638;9.216;2022-09-09T09:16:21;100671.06;;;17.54;100.00
32033;BME280;31720;52.638;9.216;2022-09-09T09:19:26;100670.69;;;17.59;100.00
32033;BME280;31720;52.638;9.216;2022-09-09T09:22:33;100662.53;;;17.71;100.00
32033;BME280;31720;52.638;9.216;2022-09-09T09:25:40;100670.91;;;17.88;100.00
32033;BME280;31720;52.638;9.216;2022-09-09T09:28:44;100671.94;;;17.96;100.00
32033;BME280;31720;52.638;9.216;2022-09-09T09:31:50;100657.84;;;18.06;100.00
32033;BME280;31720;52.638;9.216;2022-09-09T09:34:55;100656.34;;;18.13;100.00
32033;BME280;31720;52.638;9.216;2022-09-09T09:37:58;100663.41;;;18.23;100.00
32033;BME280;31720;52.638;9.216;2022-09-09T09:41:01;100663.25;;;18.25;100.00
32033;BME280;31720;52.638;9.216;2022-09-09T09:44:03;100660.34;;;18.28;100.00
32033;BME280;31720;52.638;9.216;2022-09-09T09:47:06;100652.22;;;18.30;100.00
32033;BME280;31720;52.638;9.216;2022-09-09T09:50:16;100651.41;;;18.39;100.00
32033;BME280;31720;52.638;9.216;2022-09-09T09:53:25;100655.25;;;18.56;100.00
32033;BME280;31720;52.638;9.216;2022-09-09T09:56:27;100656.84;;;18.68;100.00
32033;BME280;31720;52.638;9.216;2022-09-09T09:59:34;100650.00;;;18.75;100.00
32033;BME280;31720;52.638;9.216;2022-09-09T10:02:38;100644.00;;;18.83;100.00
32033;BME280;31720;52.638;9.216;2022-09-09T10:05:45;100643.59;;;18.87;100.00
32033;BME280;31720;52.638;9.216;2022-09-09T10:08:48;100647.22;;;18.86;100.00
32033;BME280;31720;52.638;9.216;2022-09-09T10:11:55;100643.84;;;18.84;100.00
32033;BME280;31720;52.638;9.216;2022-09-09T10:15:03;100635.31;;;18.81;100.00
32033;BME280;31720;52.638;9.216;2022-09-09T10:18:25;100650.31;;;18.82;100.00
32033;BME280;31720;52.638;9.216;2022-09-09T10:21:54;100650.44;;;18.80;100.00
32033;BME280;31720;52.638;9.216;2022-09-09T10:28:35;100657.56;;;18.70;100.00
32033;BME280;31720;52.638;9.216;2022-09-09T10:31:48;100655.28;;;18.65;100.00
32033;BME280;31720;52.638;9.216;2022-09-09T10:34:56;100659.63;;;18.66;100.00
32033;BME280;31720;52.638;9.216;2022-09-09T10:38:14;100658.13;;;18.73;100.00
32033;BME280;31720;52.638;9.216;2022-09-09T10:41:25;100662.63;;;18.73;99.72
32033;BME280;31720;52.638;9.216;2022-09-09T10:44:55;100655.91;;;18.79;100.00
32033;BME280;31720;52.638;9.216;2022-09-09T10:48:11;100643.84;;;18.94;100.00
32033;BME280;31720;52.638;9.216;2022-09-09T10:51:22;100633.66;;;19.18;99.02
32033;BME280;31720;52.638;9.216;2022-09-09T10:54:32;100638.13;;;19.37;92.16
32033;BME280;31720;52.638;9.216;2022-09-09T10:57:41;100635.63;;;19.26;93.38
32033;BME280;31720;52.638;9.216;2022-09-09T11:00:46;100630.44;;;19.15;92.74
32033;BME280;31720;52.638;9.216;2022-09-09T11:03:53;100639.97;;;19.08;96.78
32033;BME280;31720;52.638;9.216;2022-09-09T11:06:55;100640.78;;;18.98;96.96
32033;BME280;31720;52.638;9.216;2022-09-09T11:10:02;100641.19;;;18.84;96.07
32033;BME280;31720;52.638;9.216;2022-09-09T11:13:10;100651.56;;;18.78;98.56
32033;BME280;31720;52.638;9.216;2022-09-09T11:16:20;100644.50;;;18.67;99.04
32033;BME280;31720;52.638;9.216;2022-09-09T11:19:28;100646.03;;;18.60;97.99
32033;BME280;31720;52.638;9.216;2022-09-09T11:22:34;100640.00;;;18.58;98.15
32033;BME280;31720;52.638;9.216;2022-09-09T11:25:39;100661.13;;;18.49;100.00
32033;BME280;31720;52.638;9.216;2022-09-09T11:28:56;100663.69;;;18.30;100.00
32033;BME280;31720;52.638;9.216;2022-09-09T11:32:12;100677.44;;;18.05;100.00
32033;BME280;31720;52.638;9.216;2022-09-09T11:35:27;100697.09;;;17.92;100.00
32033;BME280;31720;52.638;9.216;2022-09-09T11:38:37;100696.09;;;17.72;100.00
32033;BME280;31720;52.638;9.216;2022-09-09T11:41:42;100684.81;;;17.59;100.00
32033;BME280;31720;52.638;9.216;2022-09-09T11:44:46;100683.75;;;17.50;100.00
32033;BME280;31720;52.638;9.216;2022-09-09T11:47:54;100679.91;;;17.43;100.00
32033;BME280;31720;52.638;9.216;2022-09-09T11:50:58;100677.78;;;17.37;100.00
32033;BME280;31720;52.638;9.216;2022-09-09T11:54:02;100677.66;;;17.39;100.00
32033;BME280;31720;52.638;9.216;2022-09-09T11:57:21;100676.81;;;17.38;100.00
32033;BME280;31720;52.638;9.216;2022-09-09T12:00:34;100674.16;;;17.38;100.00
32033;BME280;31720;52.638;9.216;2022-09-09T12:03:41;100684.41;;;17.43;100.00
32033;BME280;31720;52.638;9.216;2022-09-09T12:06:48;100685.00;;;17.46;100.00
32033;BME280;31720;52.638;9.216;2022-09-09T12:09:52;100678.91;;;17.56;100.00
32033;BME280;31720;52.638;9.216;2022-09-09T12:13:07;100685.47;;;17.72;100.00
32033;BME280;31720;52.638;9.216;2022-09-09T12:16:30;100676.03;;;17.80;100.00
32033;BME280;31720;52.638;9.216;2022-09-09T12:19:33;100663.06;;;17.86;100.00
32033;BME280;31720;52.638;9.216;2022-09-09T12:22:39;100663.66;;;17.90;100.00
32033;BME280;31720;52.638;9.216;2022-09-09T12:25:58;100667.59;;;17.95;100.00
32033;BME280;31720;52.638;9.216;2022-09-09T12:29:12;100668.03;;;18.00;100.00
32033;BME280;31720;52.638;9.216;2022-09-09T12:32:22;100648.03;;;18.06;100.00
32033;BME280;31720;52.638;9.216;2022-09-09T12:35:27;100652.31;;;18.18;100.00
32033;BME280;31720;52.638;9.216;2022-09-09T12:38:34;100653.13;;;18.49;100.00
32033;BME280;31720;52.638;9.216;2022-09-09T12:41:35;100646.66;;;18.92;100.00
32033;BME280;31720;52.638;9.216;2022-09-09T12:44:37;100633.81;;;19.36;100.00
32033;BME280;31720;52.638;9.216;2022-09-09T12:47:45;100627.72;;;19.83;100.00
32033;BME280;31720;52.638;9.216;2022-09-09T12:50:49;100618.94;;;20.37;100.00
32033;BME280;31720;52.638;9.216;2022-09-09T12:53:51;100608.47;;;20.81;99.69
32033;BME280;31720;52.638;9.216;2022-09-09T12:56:53;100610.34;;;21.07;94.85
32033;BME280;31720;52.638;9.216;2022-09-09T13:00:07;100614.25;;;21.48;94.32
32033;BME280;31720;52.638;9.216;2022-09-09T13:03:17;100606.75;;;22.03;93.27
32033;BME280;31720;52.638;9.216;2022-09-09T13:06:21;100607.53;;;22.22;76.33
32033;BME280;31720;52.638;9.216;2022-09-09T13:09:23;100615.78;;;22.37;74.73
32033;BME280;31720;52.638;9.216;2022-09-09T13:12:25;100602.50;;;22.69;77.80
32033;BME280;31720;52.638;9.216;2022-09-09T13:15:28;100597.72;;;22.97;77.55
32033;BME280;31720;52.638;9.216;2022-09-09T13:18:34;100595.53;;;23.25;75.43
32033;BME280;31720;52.638;9.216;2022-09-09T13:21:37;100591.84;;;23.02;70.22
32033;BME280;31720;52.638;9.216;2022-09-09T13:24:38;100600.88;;;22.85;71.56
32033;BME280;31720;52.638;9.216;2022-09-09T13:27:41;100604.94;;;23.05;69.62
32033;BME280;31720;52.638;9.216;2022-09-09T13:30:43;100584.16;;;23.32;71.25
32033;BME280;31720;52.638;9.216;2022-09-09T13:33:46;100582.47;;;23.39;69.77
32033;BME280;31720;52.638;9.216;2022-09-09T13:36:48;100588.50;;;23.24;71.14
32033;BME280;31720;52.638;9.216;2022-09-09T13:39:51;100594.19;;;22.97;74.69
32033;BME280;31720;52.638;9.216;2022-09-09T13:42:55;100587.16;;;23.20;73.76
32033;BME280;31720;52.638;9.216;2022-09-09T13:45:58;100591.69;;;23.20;70.31
32033;BME280;31720;52.638;9.216;2022-09-09T13:49:18;100585.25;;;22.72;69.76
32033;BME280;31720;52.638;9.216;2022-09-09T13:52:20;100578.56;;;22.68;73.66
32033;BME280;31720;52.638;9.216;2022-09-09T13:55:23;100574.81;;;22.52;75.42
32033;BME280;31720;52.638;9.216;2022-09-09T13:58:25;100566.31;;;22.65;75.37
32033;BME280;31720;52.638;9.216;2022-09-09T14:01:27;100564.66;;;22.89;72.12
32033;BME280;31720;52.638;9.216;2022-09-09T14:04:30;100560.97;;;22.65;73.79
32033;BME280;31720;52.638;9.216;2022-09-09T14:07:31;100560.56;;;22.36;73.86
32033;BME280;31720;52.638;9.216;2022-09-09T14:10:33;100555.06;;;22.45;73.57
32033;BME280;31720;52.638;9.216;2022-09-09T14:13:37;100565.34;;;22.83;74.51
32033;BME280;31720;52.638;9.216;2022-09-09T14:16:38;100558.19;;;23.32;71.63
32033;BME280;31720;52.638;9.216;2022-09-09T14:19:41;100559.00;;;23.24;69.10
32033;BME280;31720;52.638;9.216;2022-09-09T14:22:42;100561.03;;;22.90;70.23
32033;BME280;31720;52.638;9.216;2022-09-09T14:25:44;100570.16;;;22.71;72.18
32033;BME280;31720;52.638;9.216;2022-09-09T14:28:47;100573.84;;;22.70;74.13
32033;BME280;31720;52.638;9.216;2022-09-09T14:31:48;100576.31;;;22.47;76.88
32033;BME280;31720;52.638;9.216;2022-09-09T14:34:51;100572.16;;;22.61;77.68
32033;BME280;31720;52.638;9.216;2022-09-09T14:37:52;100572.34;;;22.59;76.08
32033;BME280;31720;52.638;9.216;2022-09-09T14:40:55;100576.44;;;22.29;76.24
32033;BME280;31720;52.638;9.216;2022-09-09T14:43:57;100576.84;;;22.08;71.36
32033;BME280;31720;52.638;9.216;2022-09-09T14:46:59;100575.91;;;21.91;66.91
32033;BME280;31720;52.638;9.216;2022-09-09T14:50:03;100571.69;;;21.89;62.18
32033;BME280;31720;52.638;9.216;2022-09-09T14:53:05;100575.38;;;21.88;62.48
32033;BME280;31720;52.638;9.216;2022-09-09T14:56:08;100563.88;;;21.95;62.01
32033;BME280;31720;52.638;9.216;2022-09-09T14:59:10;100560.59;;;22.10;61.92
32033;BME280;31720;52.638;9.216;2022-09-09T15:02:13;100556.16;;;22.18;58.70
32033;BME280;31720;52.638;9.216;2022-09-09T15:05:16;100558.03;;;22.26;60.17
32033;BME280;31720;52.638;9.216;2022-09-09T15:08:17;100558.06;;;22.42;59.11
32033;BME280;31720;52.638;9.216;2022-09-09T15:11:19;100556.06;;;22.52;61.12
32033;BME280;31720;52.638;9.216;2022-09-09T15:14:22;100568.13;;;22.48;57.71
32033;BME280;31720;52.638;9.216;2022-09-09T15:17:23;100576.84;;;22.50;59.45
32033;BME280;31720;52.638;9.216;2022-09-09T15:20:28;100569.91;;;22.32;57.64
32033;BME280;31720;52.638;9.216;2022-09-09T15:23:31;100578.22;;;22.12;62.66
32033;BME280;31720;52.638;9.216;2022-09-09T15:26:32;100579.47;;;22.00;57.54
32033;BME280;31720;52.638;9.216;2022-09-09T15:29:33;100581.56;;;21.88;57.32
32033;BME280;31720;52.638;9.216;2022-09-09T15:32:35;100580.19;;;21.76;59.38
32033;BME280;31720;52.638;9.216;2022-09-09T15:35:37;100585.47;;;21.68;59.11
32033;BME280;31720;52.638;9.216;2022-09-09T15:38:39;100590.41;;;21.55;68.75
32033;BME280;31720;52.638;9.216;2022-09-09T15:41:40;100593.94;;;21.19;76.91
32033;BME280;31720;52.638;9.216;2022-09-09T15:44:42;100593.66;;;21.05;80.44
32033;BME280;31720;52.638;9.216;2022-09-09T15:47:44;100590.13;;;21.04;80.23
32033;BME280;31720;52.638;9.216;2022-09-09T15:51:01;100582.41;;;21.01;78.36
32033;BME280;31720;52.638;9.216;2022-09-09T15:54:04;100584.72;;;20.96;77.20
32033;BME280;31720;52.638;9.216;2022-09-09T15:57:07;100588.66;;;20.74;77.33
32033;BME280;31720;52.638;9.216;2022-09-09T16:00:10;100589.50;;;20.57;76.81
32033;BME280;31720;52.638;9.216;2022-09-09T16:03:13;100599.94;;;20.50;78.32